Takashima — JD3244 — position and weather

sailwx.info

Track history (hours):
 
Tides and Currents Weather Stations Pressure Air Temp Water Temp Dewpoint Dewpoint Depression Visibility Wind Speed Wind Dir Waves Ship Positions

Takashima

Last reported at 2018-Jul-21 02:18 UTC. Time now 2018-Jul-22 14:07 UTC.
Position N 34°14' E 134°39'.

Length 63 m; draft 3.6 m.

Type: Cargo ship. MMSI: 431003158.

Date/timePositionNaut miles runAvg speedWind from/ knotsBaromVisibWave heightAir tempDewpointWater temp
2018-Jul-21 02:18N 34°14' E 134°39'911.7
2018-Jul-21 01:33N 34°07' E 134°46'211.8
2018-Jul-21 01:25N 34°06' E 134°47'611.5
2018-Jul-21 00:56N 34°01' E 134°52'511.9
2018-Jul-21 00:29N 33°58' E 134°56'612.0
2018-Jul-21 00:00N 33°53' E 135°01'231 6.0
2018-Jul-19 09:21N 35°02' E 139°29'410.7
2018-Jul-19 08:58N 35°04' E 139°33'511.4
2018-Jul-19 08:30N 35°07' E 139°39'611.8
2018-Jul-19 08:00N 35°11' E 139°44'510.5
2018-Jul-19 07:30N 35°16' E 139°46'611.3
2018-Jul-19 07:00N 35°21' E 139°42'510.6
2018-Jul-19 06:30N 35°26' E 139°45'611.2
2018-Jul-19 06:00N 35°29' E 139°51'611.2
2018-Jul-19 05:30N 35°30' E 139°57'4 0.2
2018-Jul-18 07:33N 35°28' E 139°53'112.3
2018-Jul-18 07:31N 35°28' E 139°52'612.3
2018-Jul-18 07:00N 35°24' E 139°47'612.0
2018-Jul-18 06:31N 35°19' E 139°44'611.5
2018-Jul-18 05:57N 35°13' E 139°47'511.4
2018-Jul-18 05:30N 35°08' E 139°45'611.0
2018-Jul-18 05:00N 35°03' E 139°41'611.7
2018-Jul-18 04:30N 34°60' E 139°36'712.9
2018-Jul-18 03:57N 34°55' E 139°28'225 9.9
2018-Jul-17 05:19N 34°06' E 135°02'310.7
2018-Jul-17 05:00N 34°09' E 135°02'511.0
2018-Jul-17 04:30N 34°15' E 135°03'611.5
2018-Jul-17 04:00N 34°20' E 135°05'611.5
2018-Jul-17 03:30N 34°25' E 135°09'611.2
2018-Jul-17 03:00N 34°28' E 135°14'611.2
2018-Jul-17 02:30N 34°31' E 135°20'3 6.5
2018-Jul-17 02:00N 34°32' E 135°24'0 0.0
2018-Jul-17 01:24N 34°32' E 135°24'0 0.0
2018-Jul-17 01:00N 34°32' E 135°24'0 0.1
2018-Jul-16 23:24N 34°32' E 135°24'1 1.7
2018-Jul-16 22:50N 34°31' E 135°25'0 0.0
2018-Jul-16 22:23N 34°31' E 135°25'0 0.0
2018-Jul-16 21:41N 34°31' E 135°25'0 0.0
2018-Jul-16 21:29N 34°31' E 135°25'0 0.0
2018-Jul-16 20:59N 34°31' E 135°25'0 0.0
2018-Jul-16 20:29N 34°31' E 135°25'0 0.0
2018-Jul-16 19:56N 34°31' E 135°25'0 0.0
2018-Jul-16 19:29N 34°31' E 135°25'0 0.0
2018-Jul-16 18:59N 34°31' E 135°25'0 0.0
2018-Jul-16 18:29N 34°31' E 135°25'0 0.0
2018-Jul-16 17:56N 34°31' E 135°25'0 0.0
2018-Jul-16 17:29N 34°31' E 135°25'0 0.0
2018-Jul-16 16:59N 34°31' E 135°25'0 0.0
2018-Jul-16 16:17N 34°31' E 135°25'0 0.0
2018-Jul-16 15:59N 34°31' E 135°25'0 0.0
2018-Jul-16 15:29N 34°31' E 135°25'0 0.0
2018-Jul-16 14:59N 34°31' E 135°25'0 0.0
2018-Jul-16 14:23N 34°31' E 135°25'0 0.0
2018-Jul-16 13:59N 34°31' E 135°25'0 0.0
2018-Jul-16 13:26N 34°31' E 135°25'0 0.0
2018-Jul-16 12:56N 34°31' E 135°25'0 0.0
2018-Jul-16 12:29N 34°31' E 135°25'0 0.0
2018-Jul-16 11:59N 34°31' E 135°25'0 0.0
2018-Jul-16 11:29N 34°31' E 135°25'0 0.0
2018-Jul-16 10:59N 34°31' E 135°25'0 0.0
2018-Jul-16 10:29N 34°31' E 135°25'0 0.0
2018-Jul-16 09:59N 34°31' E 135°25'0 0.0
2018-Jul-16 09:29N 34°31' E 135°25'0 0.0
2018-Jul-16 08:59N 34°31' E 135°25'0 0.0
2018-Jul-16 08:29N 34°31' E 135°25'0 0.0
2018-Jul-16 07:59N 34°31' E 135°25'0 0.0
2018-Jul-16 07:29N 34°31' E 135°25'0 0.0
2018-Jul-16 06:53N 34°31' E 135°25'0 0.0
2018-Jul-16 06:29N 34°31' E 135°25'0 0.0
2018-Jul-16 05:56N 34°31' E 135°25'0 0.0
2018-Jul-16 05:26N 34°31' E 135°25'0 0.0
2018-Jul-16 04:53N 34°31' E 135°25'0 0.0
2018-Jul-16 04:26N 34°31' E 135°25'0 0.0
2018-Jul-16 03:53N 34°31' E 135°25'0 0.0
2018-Jul-16 03:29N 34°31' E 135°25'0 0.0
2018-Jul-16 02:59N 34°31' E 135°25'0 0.0
2018-Jul-16 02:29N 34°31' E 135°25'0 0.0
2018-Jul-16 01:59N 34°31' E 135°25'0 0.0
2018-Jul-16 01:29N 34°31' E 135°25'0 0.0
2018-Jul-16 00:59N 34°31' E 135°25'0 0.0
2018-Jul-16 00:29N 34°31' E 135°25'0 0.0
2018-Jul-15 23:59N 34°31' E 135°25'0 0.0
2018-Jul-15 23:29N 34°31' E 135°25'0 0.0
2018-Jul-15 22:56N 34°31' E 135°25'0 0.0
2018-Jul-15 22:23N 34°31' E 135°25'0 0.0
2018-Jul-15 21:47N 34°31' E 135°25'0 0.0
2018-Jul-15 21:29N 34°31' E 135°25'0 0.0
2018-Jul-15 20:41N 34°31' E 135°25'0 0.0
2018-Jul-15 20:23N 34°31' E 135°25'0 0.0
2018-Jul-15 19:53N 34°31' E 135°25'0 0.0
2018-Jul-15 19:29N 34°31' E 135°25'0 0.0
2018-Jul-15 18:59N 34°31' E 135°25'0 0.0
2018-Jul-15 18:26N 34°31' E 135°25'0 0.0
2018-Jul-15 17:53N 34°31' E 135°25'0 0.0
2018-Jul-15 17:29N 34°31' E 135°25'0 0.0
2018-Jul-15 16:47N 34°31' E 135°25'0 0.0
2018-Jul-15 16:29N 34°31' E 135°25'0 0.0
2018-Jul-15 15:59N 34°31' E 135°25'0 0.0
2018-Jul-15 15:29N 34°31' E 135°25'0 0.0
2018-Jul-15 14:59N 34°31' E 135°25'0 0.0
2018-Jul-15 14:23N 34°31' E 135°25'0 0.0
2018-Jul-15 13:59N 34°31' E 135°25'0 0.0
2018-Jul-15 13:29N 34°31' E 135°25'0 0.0
2018-Jul-15 12:59N 34°31' E 135°25'0 0.0
2018-Jul-15 12:29N 34°31' E 135°25'0 0.0
2018-Jul-15 11:59N 34°31' E 135°25'0 0.0
2018-Jul-15 11:29N 34°31' E 135°25'0 0.0
2018-Jul-15 10:56N 34°31' E 135°25'0 0.0
2018-Jul-15 10:29N 34°31' E 135°25'0 0.0
2018-Jul-15 09:52N 34°31' E 135°25'0 0.0
2018-Jul-15 09:29N 34°31' E 135°25'0 0.0
2018-Jul-15 08:59N 34°31' E 135°25'0 0.0
2018-Jul-15 08:29N 34°31' E 135°25'0 0.0
2018-Jul-15 07:59N 34°31' E 135°25'0 0.0
2018-Jul-15 07:29N 34°31' E 135°25'0 0.0
2018-Jul-15 06:59N 34°31' E 135°25'0 0.0
2018-Jul-15 06:23N 34°31' E 135°25'0 0.0
2018-Jul-15 05:59N 34°31' E 135°25'0 0.0
2018-Jul-15 05:23N 34°31' E 135°25'0 0.0
2018-Jul-15 04:59N 34°31' E 135°25'0 0.0
2018-Jul-15 04:29N 34°31' E 135°25'0 0.0
2018-Jul-15 03:53N 34°31' E 135°25'0 0.0
2018-Jul-15 03:23N 34°31' E 135°25'0 0.0
2018-Jul-15 02:59N 34°31' E 135°25'0 0.0
2018-Jul-15 02:29N 34°31' E 135°25'0 0.0
2018-Jul-15 01:59N 34°31' E 135°25'0 0.0
2018-Jul-15 01:29N 34°31' E 135°25'0 0.0
2018-Jul-15 00:59N 34°31' E 135°25'0 0.0
2018-Jul-15 00:28N 34°31' E 135°25'0 0.0
2018-Jul-14 23:52N 34°31' E 135°25'0 0.0
2018-Jul-14 23:28N 34°31' E 135°25'0 0.0
2018-Jul-14 22:58N 34°31' E 135°25'0 0.0
2018-Jul-14 22:28N 34°31' E 135°25'0 0.0
2018-Jul-14 21:59N 34°31' E 135°25'0 0.0
2018-Jul-14 21:17N 34°31' E 135°25'0 0.0
2018-Jul-14 20:56N 34°31' E 135°25'2 3.7
2018-Jul-14 20:29N 34°32' E 135°23'511.3
2018-Jul-14 20:00N 34°30' E 135°17'611.4
2018-Jul-14 19:30N 34°26' E 135°12'510.5
2018-Jul-14 19:00N 34°23' E 135°07'510.8
2018-Jul-14 18:30N 34°18' E 135°04'5 9.9
2018-Jul-14 18:00N 34°13' E 135°03'611.9
2018-Jul-14 17:29N 34°07' E 135°02'611.9
2018-Jul-14 17:00N 34°01' E 135°01'611.3
2018-Jul-14 16:30N 33°56' E 135°02'208 6.8
2018-Jul-13 09:52N 34°47' E 139°06'410.8
2018-Jul-13 09:30N 34°50' E 139°09'14 9.7
2018-Jul-13 08:01N 34°58' E 139°23'1 8.9
2018-Jul-13 07:55N 34°59' E 139°24'4 9.0
2018-Jul-13 07:28N 35°01' E 139°28'510.1
2018-Jul-13 07:00N 35°04' E 139°33'612.0
2018-Jul-13 06:30N 35°07' E 139°39'611.6
2018-Jul-13 06:00N 35°11' E 139°45'5 9.8
2018-Jul-13 05:29N 35°16' E 139°46'510.7
2018-Jul-13 05:00N 35°20' E 139°43'510.2
2018-Jul-13 04:30N 35°25' E 139°44'611.1
2018-Jul-13 04:00N 35°28' E 139°50'510.8
2018-Jul-13 03:30N 35°30' E 139°56'4 0.3
2018-Jul-12 13:53N 35°28' E 139°52'411.5
2018-Jul-12 13:30N 35°26' E 139°48'611.6
2018-Jul-12 13:00N 35°21' E 139°45'510.4
2018-Jul-12 12:30N 35°16' E 139°47'510.5
2018-Jul-12 12:00N 35°10' E 139°46'611.4
2018-Jul-12 11:29N 35°05' E 139°43'611.7
2018-Jul-12 11:00N 35°01' E 139°38'612.7
2018-Jul-12 10:30N 34°57' E 139°32'228 9.5
2018-Jul-11 10:36N 34°08' E 135°02'110.6
2018-Jul-11 10:30N 34°09' E 135°02'510.4
2018-Jul-11 10:00N 34°14' E 135°02'510.4
2018-Jul-11 09:30N 34°19' E 135°04'611.0
2018-Jul-11 09:00N 34°24' E 135°08'510.8
2018-Jul-11 08:30N 34°27' E 135°13'611.3
2018-Jul-11 08:00N 34°30' E 135°19'  
Track history (hours):
 
Tides and Currents Weather Stations Pressure Air Temp Water Temp Dewpoint Dewpoint Depression Visibility Wind Speed Wind Dir Waves Ship Positions

Takashima

Last reported at 2018-Jul-21 02:18 UTC. Time now 2018-Jul-22 14:07 UTC.
Position N 34°14' E 134°39'.

Length 63 m; draft 3.6 m.

Type: Cargo ship. MMSI: 431003158.

Date/timePositionNaut miles runAvg speedWind from/ knotsBaromVisibWave heightAir tempDewpointWater temp
2018-Jul-21 02:18N 34°14' E 134°39'911.7
2018-Jul-21 01:33N 34°07' E 134°46'211.8
2018-Jul-21 01:25N 34°06' E 134°47'611.5
2018-Jul-21 00:56N 34°01' E 134°52'511.9
2018-Jul-21 00:29N 33°58' E 134°56'612.0
2018-Jul-21 00:00N 33°53' E 135°01'231 6.0
2018-Jul-19 09:21N 35°02' E 139°29'410.7
2018-Jul-19 08:58N 35°04' E 139°33'511.4
2018-Jul-19 08:30N 35°07' E 139°39'611.8
2018-Jul-19 08:00N 35°11' E 139°44'510.5
2018-Jul-19 07:30N 35°16' E 139°46'611.3
2018-Jul-19 07:00N 35°21' E 139°42'510.6
2018-Jul-19 06:30N 35°26' E 139°45'611.2
2018-Jul-19 06:00N 35°29' E 139°51'611.2
2018-Jul-19 05:30N 35°30' E 139°57'4 0.2
2018-Jul-18 07:33N 35°28' E 139°53'112.3
2018-Jul-18 07:31N 35°28' E 139°52'612.3
2018-Jul-18 07:00N 35°24' E 139°47'612.0
2018-Jul-18 06:31N 35°19' E 139°44'611.5
2018-Jul-18 05:57N 35°13' E 139°47'511.4
2018-Jul-18 05:30N 35°08' E 139°45'611.0
2018-Jul-18 05:00N 35°03' E 139°41'611.7
2018-Jul-18 04:30N 34°60' E 139°36'712.9
2018-Jul-18 03:57N 34°55' E 139°28'225 9.9
2018-Jul-17 05:19N 34°06' E 135°02'310.7
2018-Jul-17 05:00N 34°09' E 135°02'511.0
2018-Jul-17 04:30N 34°15' E 135°03'611.5
2018-Jul-17 04:00N 34°20' E 135°05'611.5
2018-Jul-17 03:30N 34°25' E 135°09'611.2
2018-Jul-17 03:00N 34°28' E 135°14'611.2
2018-Jul-17 02:30N 34°31' E 135°20'3 6.5
2018-Jul-17 02:00N 34°32' E 135°24'0 0.0
2018-Jul-17 01:24N 34°32' E 135°24'0 0.0
2018-Jul-17 01:00N 34°32' E 135°24'0 0.1
2018-Jul-16 23:24N 34°32' E 135°24'1 1.7
2018-Jul-16 22:50N 34°31' E 135°25'0 0.0
2018-Jul-16 22:23N 34°31' E 135°25'0 0.0
2018-Jul-16 21:41N 34°31' E 135°25'0 0.0
2018-Jul-16 21:29N 34°31' E 135°25'0 0.0
2018-Jul-16 20:59N 34°31' E 135°25'0 0.0
2018-Jul-16 20:29N 34°31' E 135°25'0 0.0
2018-Jul-16 19:56N 34°31' E 135°25'0 0.0
2018-Jul-16 19:29N 34°31' E 135°25'0 0.0
2018-Jul-16 18:59N 34°31' E 135°25'0 0.0
2018-Jul-16 18:29N 34°31' E 135°25'0 0.0
2018-Jul-16 17:56N 34°31' E 135°25'0 0.0
2018-Jul-16 17:29N 34°31' E 135°25'0 0.0
2018-Jul-16 16:59N 34°31' E 135°25'0 0.0
2018-Jul-16 16:17N 34°31' E 135°25'0 0.0
2018-Jul-16 15:59N 34°31' E 135°25'0 0.0
2018-Jul-16 15:29N 34°31' E 135°25'0 0.0
2018-Jul-16 14:59N 34°31' E 135°25'0 0.0
2018-Jul-16 14:23N 34°31' E 135°25'0 0.0
2018-Jul-16 13:59N 34°31' E 135°25'0 0.0
2018-Jul-16 13:26N 34°31' E 135°25'0 0.0
2018-Jul-16 12:56N 34°31' E 135°25'0 0.0
2018-Jul-16 12:29N 34°31' E 135°25'0 0.0
2018-Jul-16 11:59N 34°31' E 135°25'0 0.0
2018-Jul-16 11:29N 34°31' E 135°25'0 0.0
2018-Jul-16 10:59N 34°31' E 135°25'0 0.0
2018-Jul-16 10:29N 34°31' E 135°25'0 0.0
2018-Jul-16 09:59N 34°31' E 135°25'0 0.0
2018-Jul-16 09:29N 34°31' E 135°25'0 0.0
2018-Jul-16 08:59N 34°31' E 135°25'0 0.0
2018-Jul-16 08:29N 34°31' E 135°25'0 0.0
2018-Jul-16 07:59N 34°31' E 135°25'0 0.0
2018-Jul-16 07:29N 34°31' E 135°25'0 0.0
2018-Jul-16 06:53N 34°31' E 135°25'0 0.0
2018-Jul-16 06:29N 34°31' E 135°25'0 0.0
2018-Jul-16 05:56N 34°31' E 135°25'0 0.0
2018-Jul-16 05:26N 34°31' E 135°25'0 0.0
2018-Jul-16 04:53N 34°31' E 135°25'0 0.0
2018-Jul-16 04:26N 34°31' E 135°25'0 0.0
2018-Jul-16 03:53N 34°31' E 135°25'0 0.0
2018-Jul-16 03:29N 34°31' E 135°25'0 0.0
2018-Jul-16 02:59N 34°31' E 135°25'0 0.0
2018-Jul-16 02:29N 34°31' E 135°25'0 0.0
2018-Jul-16 01:59N 34°31' E 135°25'0 0.0
2018-Jul-16 01:29N 34°31' E 135°25'0 0.0
2018-Jul-16 00:59N 34°31' E 135°25'0 0.0
2018-Jul-16 00:29N 34°31' E 135°25'0 0.0
2018-Jul-15 23:59N 34°31' E 135°25'0 0.0
2018-Jul-15 23:29N 34°31' E 135°25'0 0.0
2018-Jul-15 22:56N 34°31' E 135°25'0 0.0
2018-Jul-15 22:23N 34°31' E 135°25'0 0.0
2018-Jul-15 21:47N 34°31' E 135°25'0 0.0
2018-Jul-15 21:29N 34°31' E 135°25'0 0.0
2018-Jul-15 20:41N 34°31' E 135°25'0 0.0
2018-Jul-15 20:23N 34°31' E 135°25'0 0.0
2018-Jul-15 19:53N 34°31' E 135°25'0 0.0
2018-Jul-15 19:29N 34°31' E 135°25'0 0.0
2018-Jul-15 18:59N 34°31' E 135°25'0 0.0
2018-Jul-15 18:26N 34°31' E 135°25'0 0.0
2018-Jul-15 17:53N 34°31' E 135°25'0 0.0
2018-Jul-15 17:29N 34°31' E 135°25'0 0.0
2018-Jul-15 16:47N 34°31' E 135°25'0 0.0
2018-Jul-15 16:29N 34°31' E 135°25'0 0.0
2018-Jul-15 15:59N 34°31' E 135°25'0 0.0
2018-Jul-15 15:29N 34°31' E 135°25'0 0.0
2018-Jul-15 14:59N 34°31' E 135°25'0 0.0
2018-Jul-15 14:23N 34°31' E 135°25'0 0.0
2018-Jul-15 13:59N 34°31' E 135°25'0 0.0
2018-Jul-15 13:29N 34°31' E 135°25'0 0.0
2018-Jul-15 12:59N 34°31' E 135°25'0 0.0
2018-Jul-15 12:29N 34°31' E 135°25'0 0.0
2018-Jul-15 11:59N 34°31' E 135°25'0 0.0
2018-Jul-15 11:29N 34°31' E 135°25'0 0.0
2018-Jul-15 10:56N 34°31' E 135°25'0 0.0
2018-Jul-15 10:29N 34°31' E 135°25'0 0.0
2018-Jul-15 09:52N 34°31' E 135°25'0 0.0
2018-Jul-15 09:29N 34°31' E 135°25'0 0.0
2018-Jul-15 08:59N 34°31' E 135°25'0 0.0
2018-Jul-15 08:29N 34°31' E 135°25'0 0.0
2018-Jul-15 07:59N 34°31' E 135°25'0 0.0
2018-Jul-15 07:29N 34°31' E 135°25'0 0.0
2018-Jul-15 06:59N 34°31' E 135°25'0 0.0
2018-Jul-15 06:23N 34°31' E 135°25'0 0.0
2018-Jul-15 05:59N 34°31' E 135°25'0 0.0
2018-Jul-15 05:23N 34°31' E 135°25'0 0.0
2018-Jul-15 04:59N 34°31' E 135°25'0 0.0
2018-Jul-15 04:29N 34°31' E 135°25'0 0.0
2018-Jul-15 03:53N 34°31' E 135°25'0 0.0
2018-Jul-15 03:23N 34°31' E 135°25'0 0.0
2018-Jul-15 02:59N 34°31' E 135°25'0 0.0
2018-Jul-15 02:29N 34°31' E 135°25'0 0.0
2018-Jul-15 01:59N 34°31' E 135°25'0 0.0
2018-Jul-15 01:29N 34°31' E 135°25'0 0.0
2018-Jul-15 00:59N 34°31' E 135°25'0 0.0
2018-Jul-15 00:28N 34°31' E 135°25'0 0.0
2018-Jul-14 23:52N 34°31' E 135°25'0 0.0
2018-Jul-14 23:28N 34°31' E 135°25'0 0.0
2018-Jul-14 22:58N 34°31' E 135°25'0 0.0
2018-Jul-14 22:28N 34°31' E 135°25'0 0.0
2018-Jul-14 21:59N 34°31' E 135°25'0 0.0
2018-Jul-14 21:17N 34°31' E 135°25'0 0.0
2018-Jul-14 20:56N 34°31' E 135°25'2 3.7
2018-Jul-14 20:29N 34°32' E 135°23'511.3
2018-Jul-14 20:00N 34°30' E 135°17'611.4
2018-Jul-14 19:30N 34°26' E 135°12'510.5
2018-Jul-14 19:00N 34°23' E 135°07'510.8
2018-Jul-14 18:30N 34°18' E 135°04'5 9.9
2018-Jul-14 18:00N 34°13' E 135°03'611.9
2018-Jul-14 17:29N 34°07' E 135°02'611.9
2018-Jul-14 17:00N 34°01' E 135°01'611.3
2018-Jul-14 16:30N 33°56' E 135°02'208 6.8
2018-Jul-13 09:52N 34°47' E 139°06'410.8
2018-Jul-13 09:30N 34°50' E 139°09'14 9.7
2018-Jul-13 08:01N 34°58' E 139°23'1 8.9
2018-Jul-13 07:55N 34°59' E 139°24'4 9.0
2018-Jul-13 07:28N 35°01' E 139°28'510.1
2018-Jul-13 07:00N 35°04' E 139°33'612.0
2018-Jul-13 06:30N 35°07' E 139°39'611.6
2018-Jul-13 06:00N 35°11' E 139°45'5 9.8
2018-Jul-13 05:29N 35°16' E 139°46'510.7
2018-Jul-13 05:00N 35°20' E 139°43'510.2
2018-Jul-13 04:30N 35°25' E 139°44'611.1
2018-Jul-13 04:00N 35°28' E 139°50'510.8
2018-Jul-13 03:30N 35°30' E 139°56'4 0.3
2018-Jul-12 13:53N 35°28' E 139°52'411.5
2018-Jul-12 13:30N 35°26' E 139°48'611.6
2018-Jul-12 13:00N 35°21' E 139°45'510.4
2018-Jul-12 12:30N 35°16' E 139°47'510.5
2018-Jul-12 12:00N 35°10' E 139°46'611.4
2018-Jul-12 11:29N 35°05' E 139°43'611.7
2018-Jul-12 11:00N 35°01' E 139°38'612.7
2018-Jul-12 10:30N 34°57' E 139°32'228 9.5
2018-Jul-11 10:36N 34°08' E 135°02'110.6
2018-Jul-11 10:30N 34°09' E 135°02'510.4
2018-Jul-11 10:00N 34°14' E 135°02'510.4
2018-Jul-11 09:30N 34°19' E 135°04'611.0
2018-Jul-11 09:00N 34°24' E 135°08'510.8
2018-Jul-11 08:30N 34°27' E 135°13'611.3
2018-Jul-11 08:00N 34°30' E 135°19'  

Dump ship's entire track history